createdAt,value
2018-10-16T00:00:17.921Z,13.31
2018-10-16T00:01:17.927Z,13.38
2018-10-16T00:02:17.925Z,13.38
2018-10-16T00:03:18.520Z,13.38
2018-10-16T00:04:17.977Z,13.31
2018-10-16T00:05:18.122Z,13.31
2018-10-16T00:06:18.015Z,13.31
2018-10-16T00:07:17.990Z,13.38
2018-10-16T00:08:18.123Z,13.38
2018-10-16T00:09:17.893Z,13.38
2018-10-16T00:10:18.125Z,13.31
2018-10-16T00:11:17.930Z,13.31
2018-10-16T00:12:18.127Z,13.31
2018-10-16T00:13:18.348Z,13.25
2018-10-16T00:14:17.811Z,13.31
2018-10-16T00:15:18.063Z,13.25
2018-10-16T00:16:18.054Z,13.25
2018-10-16T00:17:17.911Z,13.25
2018-10-16T00:18:18.314Z,13.25
2018-10-16T00:19:18.304Z,13.25
2018-10-16T00:20:17.930Z,13.25
2018-10-16T00:21:18.111Z,13.25
2018-10-16T00:22:17.992Z,13.19
2018-10-16T00:23:18.098Z,13.19
2018-10-16T00:24:18.112Z,13.19
2018-10-16T00:25:18.005Z,13.13
2018-10-16T00:26:17.968Z,13.13
2018-10-16T00:27:17.973Z,13.13
2018-10-16T00:28:18.070Z,13.06
2018-10-16T00:29:17.892Z,13.06
2018-10-16T00:30:17.962Z,13.06
2018-10-16T00:31:17.998Z,13.06
2018-10-16T00:32:17.912Z,13.06
2018-10-16T00:33:18.290Z,13.06
2018-10-16T00:34:18.057Z,13.06
2018-10-16T00:35:18.048Z,13.06
2018-10-16T00:36:17.876Z,13.06
2018-10-16T00:37:18.022Z,13.06
2018-10-16T00:38:18.101Z,13.06
2018-10-16T00:39:17.951Z,13
2018-10-16T00:40:18.271Z,13.06
2018-10-16T00:41:18.102Z,13.06
2018-10-16T00:42:18.318Z,13
2018-10-16T00:43:18.082Z,13
2018-10-16T00:44:17.971Z,13
2018-10-16T00:45:18.092Z,13
2018-10-16T00:46:17.930Z,12.94
2018-10-16T00:47:18.163Z,12.94
2018-10-16T00:48:17.987Z,12.94
2018-10-16T00:49:17.887Z,12.88
2018-10-16T00:50:18.545Z,12.94
2018-10-16T00:51:17.933Z,12.88
2018-10-16T00:52:17.935Z,12.88
2018-10-16T00:53:18.342Z,12.88
2018-10-16T00:54:18.110Z,12.88
2018-10-16T00:55:17.868Z,12.88
2018-10-16T00:56:17.972Z,12.88
2018-10-16T00:57:17.841Z,12.81
2018-10-16T00:58:17.997Z,12.81
2018-10-16T00:59:17.839Z,12.81
2018-10-16T01:00:17.794Z,12.75
2018-10-16T01:01:17.853Z,12.81
2018-10-16T01:02:17.911Z,12.75
2018-10-16T01:03:17.914Z,12.69
2018-10-16T01:04:17.931Z,12.75
2018-10-16T01:05:17.955Z,12.69
2018-10-16T01:06:17.945Z,12.69
2018-10-16T01:07:17.897Z,12.69
2018-10-16T01:08:18.110Z,12.69
2018-10-16T01:09:17.862Z,12.69
2018-10-16T01:10:17.902Z,12.63
2018-10-16T01:11:18.130Z,12.63
2018-10-16T01:12:17.935Z,12.56
2018-10-16T01:13:18.741Z,12.56
2018-10-16T01:14:17.890Z,12.56
2018-10-16T01:15:17.926Z,12.56
2018-10-16T01:16:18.010Z,12.56
2018-10-16T01:17:17.860Z,12.56
2018-10-16T01:18:17.854Z,12.5
2018-10-16T01:19:17.881Z,12.5
2018-10-16T01:20:17.806Z,12.56
2018-10-16T01:21:18.049Z,12.5
2018-10-16T01:22:18.015Z,12.5
2018-10-16T01:23:17.808Z,12.5
2018-10-16T01:24:17.848Z,12.44
2018-10-16T01:25:17.882Z,12.5
2018-10-16T01:26:17.901Z,12.44
2018-10-16T01:27:18.204Z,12.5
2018-10-16T01:28:17.959Z,12.44
2018-10-16T01:29:17.841Z,12.44
2018-10-16T01:30:17.912Z,12.44
2018-10-16T01:31:18.073Z,12.44
2018-10-16T01:32:18.144Z,12.44
2018-10-16T01:33:18.291Z,12.37
2018-10-16T01:34:17.845Z,12.44
2018-10-16T01:35:17.926Z,12.37
2018-10-16T01:36:17.839Z,12.37
2018-10-16T01:37:17.991Z,12.37
2018-10-16T01:38:18.026Z,12.31
2018-10-16T01:39:17.799Z,12.37
2018-10-16T01:40:17.878Z,12.31
2018-10-16T01:41:17.765Z,12.31
2018-10-16T01:42:17.903Z,12.31
2018-10-16T01:43:17.890Z,12.31
2018-10-16T01:44:17.967Z,12.31
2018-10-16T01:45:17.906Z,12.31
2018-10-16T01:46:17.913Z,12.25
2018-10-16T01:47:17.861Z,12.25
2018-10-16T01:48:17.778Z,12.25
2018-10-16T01:49:17.810Z,12.25
2018-10-16T01:50:17.895Z,12.19
2018-10-16T01:51:17.810Z,12.13
2018-10-16T01:52:17.920Z,12.19
2018-10-16T01:53:17.799Z,12.19
2018-10-16T01:54:17.827Z,12.19
2018-10-16T01:55:17.968Z,12.19
2018-10-16T01:56:17.896Z,12.13
2018-10-16T01:57:17.821Z,12.19
2018-10-16T01:58:18.142Z,12.19
2018-10-16T01:59:17.783Z,12.19
2018-10-16T02:00:17.772Z,12.19
2018-10-16T02:01:17.977Z,12.13
2018-10-16T02:02:17.755Z,12.13
2018-10-16T02:03:17.773Z,12.06
2018-10-16T02:04:17.818Z,12.06
2018-10-16T02:05:17.768Z,12
2018-10-16T02:06:17.826Z,12
2018-10-16T02:07:17.849Z,12
2018-10-16T02:08:17.781Z,12
2018-10-16T02:09:18.429Z,11.94
2018-10-16T02:10:17.891Z,11.94
2018-10-16T02:11:17.845Z,12
2018-10-16T02:12:17.751Z,11.94
2018-10-16T02:13:17.857Z,11.94
2018-10-16T02:14:17.808Z,12
2018-10-16T02:15:17.760Z,12
2018-10-16T02:16:17.980Z,11.94
2018-10-16T02:17:18.119Z,11.94
2018-10-16T02:18:18.193Z,11.88
2018-10-16T02:19:17.763Z,11.88
2018-10-16T02:20:17.780Z,11.88
2018-10-16T02:21:17.813Z,11.81
2018-10-16T02:22:17.967Z,11.81
2018-10-16T02:23:17.864Z,11.75
2018-10-16T02:24:17.885Z,11.75
2018-10-16T02:25:18.001Z,11.75
2018-10-16T02:26:17.851Z,11.69
2018-10-16T02:27:17.720Z,11.75
2018-10-16T02:28:17.760Z,11.69
2018-10-16T02:29:18.072Z,11.69
2018-10-16T02:30:18.075Z,11.63
2018-10-16T02:31:17.734Z,11.63
2018-10-16T02:32:17.723Z,11.63
2018-10-16T02:33:17.696Z,11.56
2018-10-16T02:34:17.739Z,11.56
2018-10-16T02:35:17.829Z,11.56
2018-10-16T02:36:17.793Z,11.56
2018-10-16T02:37:17.751Z,11.56
2018-10-16T02:38:17.687Z,11.56
2018-10-16T02:39:17.967Z,11.56
2018-10-16T02:40:17.744Z,11.56
2018-10-16T02:41:17.726Z,11.56
2018-10-16T02:42:17.749Z,11.5
2018-10-16T02:43:17.764Z,11.56
2018-10-16T02:44:17.816Z,11.56
2018-10-16T02:45:17.807Z,11.56
2018-10-16T02:46:17.756Z,11.56
2018-10-16T02:47:17.757Z,11.56
2018-10-16T02:48:17.781Z,11.56
2018-10-16T02:49:17.976Z,11.56
2018-10-16T02:50:17.708Z,11.5
2018-10-16T02:51:17.748Z,11.5
2018-10-16T02:52:17.774Z,11.5
2018-10-16T02:53:18.172Z,11.5
2018-10-16T02:54:17.799Z,11.5
2018-10-16T02:55:17.773Z,11.5
2018-10-16T02:56:17.782Z,11.5
2018-10-16T02:57:17.756Z,11.5
2018-10-16T02:58:17.936Z,11.5
2018-10-16T02:59:17.945Z,11.5
2018-10-16T03:00:17.814Z,11.5
2018-10-16T03:01:17.695Z,11.44
2018-10-16T03:02:17.912Z,11.56
2018-10-16T03:03:17.740Z,11.5
2018-10-16T03:04:17.703Z,11.56
2018-10-16T03:05:18.713Z,11.5
2018-10-16T03:06:17.779Z,11.5
2018-10-16T03:07:18.091Z,11.5
2018-10-16T03:08:17.747Z,11.5
2018-10-16T03:09:17.856Z,11.5
2018-10-16T03:10:17.793Z,11.44
2018-10-16T03:11:17.889Z,11.5
2018-10-16T03:12:17.850Z,11.5
2018-10-16T03:13:17.751Z,11.5
2018-10-16T03:14:17.784Z,11.44
2018-10-16T03:15:17.742Z,11.5
2018-10-16T03:16:17.903Z,11.56
2018-10-16T03:17:17.869Z,11.5
2018-10-16T03:18:17.833Z,11.5
2018-10-16T03:19:17.830Z,11.5
2018-10-16T03:20:18.296Z,11.5
2018-10-16T03:21:18.101Z,11.5
2018-10-16T03:22:18.151Z,11.5
2018-10-16T03:24:18.154Z,11.44
2018-10-16T03:25:17.758Z,11.44
2018-10-16T03:26:17.675Z,11.44
2018-10-16T03:27:17.680Z,11.44
2018-10-16T03:28:17.627Z,11.38
2018-10-16T03:29:17.733Z,11.38
2018-10-16T03:30:17.781Z,11.31
2018-10-16T03:31:17.603Z,11.38
2018-10-16T03:32:17.792Z,11.38
2018-10-16T03:33:17.728Z,11.31
2018-10-16T03:34:17.576Z,11.31
2018-10-16T03:35:17.536Z,11.31
2018-10-16T03:36:17.543Z,11.31
2018-10-16T03:37:17.675Z,11.25
2018-10-16T03:38:17.802Z,11.25
2018-10-16T03:39:17.564Z,11.25
2018-10-16T03:40:17.588Z,11.25
2018-10-16T03:41:17.617Z,11.25
2018-10-16T03:42:17.633Z,11.19
2018-10-16T03:43:17.571Z,11.25
2018-10-16T03:44:17.599Z,11.25
2018-10-16T03:45:17.551Z,11.25
2018-10-16T03:46:17.612Z,11.25
2018-10-16T03:47:17.540Z,11.19
2018-10-16T03:48:17.621Z,11.25
2018-10-16T03:49:17.744Z,11.19
2018-10-16T03:50:17.561Z,11.19
2018-10-16T03:51:17.580Z,11.19
2018-10-16T03:52:17.595Z,11.25
2018-10-16T03:53:18.127Z,11.25
2018-10-16T03:54:17.610Z,11.31
2018-10-16T03:55:17.538Z,11.31
2018-10-16T03:56:17.704Z,11.31
2018-10-16T03:57:18.255Z,11.38
2018-10-16T03:58:17.604Z,11.38
2018-10-16T03:59:17.545Z,11.38
2018-10-16T04:00:17.527Z,11.38
2018-10-16T04:01:17.563Z,11.44
2018-10-16T04:02:17.590Z,11.44
2018-10-16T04:03:17.680Z,11.38
2018-10-16T04:04:17.518Z,11.44
2018-10-16T04:05:17.514Z,11.38
2018-10-16T04:06:17.498Z,11.38
2018-10-16T04:07:17.730Z,11.38
2018-10-16T04:08:17.749Z,11.38
2018-10-16T04:09:17.520Z,11.31
2018-10-16T04:10:17.497Z,11.31
2018-10-16T04:11:17.533Z,11.31
2018-10-16T04:12:17.504Z,11.31
2018-10-16T04:13:17.566Z,11.38
2018-10-16T04:14:17.553Z,11.31
2018-10-16T04:15:17.632Z,11.38
2018-10-16T04:16:17.557Z,11.38
2018-10-16T04:17:17.603Z,11.38
2018-10-16T04:18:17.461Z,11.38
2018-10-16T04:19:17.585Z,11.44
2018-10-16T04:20:17.496Z,11.5
2018-10-16T04:21:17.852Z,11.44
2018-10-16T04:22:18.131Z,11.5
2018-10-16T04:23:17.556Z,11.44
2018-10-16T04:24:17.464Z,11.44
2018-10-16T04:25:17.603Z,11.44
2018-10-16T04:26:17.537Z,11.38
2018-10-16T04:27:17.535Z,11.38
2018-10-16T04:28:17.889Z,11.44
2018-10-16T04:29:18.302Z,11.38
2018-10-16T04:30:17.562Z,11.38
2018-10-16T04:31:17.550Z,11.31
2018-10-16T04:32:17.512Z,11.38
2018-10-16T04:33:17.542Z,11.31
2018-10-16T04:34:17.521Z,11.38
2018-10-16T04:35:17.502Z,11.38
2018-10-16T04:36:17.647Z,11.38
2018-10-16T04:37:17.610Z,11.31
2018-10-16T04:38:18.589Z,11.31
2018-10-16T04:39:17.604Z,11.25
2018-10-16T04:40:17.550Z,11.31
2018-10-16T04:41:17.747Z,11.19
2018-10-16T04:42:17.491Z,11.19
2018-10-16T04:43:17.508Z,11.19
2018-10-16T04:44:17.516Z,11.19
2018-10-16T04:46:17.494Z,11.12
2018-10-16T04:47:17.494Z,11.12
2018-10-16T04:48:17.490Z,11.06
2018-10-16T04:49:17.465Z,11.06
2018-10-16T04:50:17.556Z,11
2018-10-16T04:51:17.518Z,11
2018-10-16T04:52:17.491Z,11
2018-10-16T04:53:17.423Z,11
2018-10-16T04:54:17.787Z,10.94
2018-10-16T04:55:18.585Z,10.94
2018-10-16T04:56:17.535Z,10.94
2018-10-16T04:57:17.550Z,10.94
2018-10-16T04:58:17.410Z,10.94
2018-10-16T04:59:17.603Z,11
2018-10-16T05:00:17.417Z,10.94
2018-10-16T05:01:17.684Z,10.94
2018-10-16T05:02:17.468Z,10.88
2018-10-16T05:03:17.442Z,10.94
2018-10-16T05:04:18.957Z,10.88
2018-10-16T05:05:17.488Z,10.88
2018-10-16T05:07:17.458Z,10.75
2018-10-16T05:08:17.462Z,10.75
2018-10-16T05:09:17.489Z,10.75
2018-10-16T05:10:17.548Z,10.75
2018-10-16T05:11:17.761Z,10.69
2018-10-16T05:12:17.405Z,10.75
2018-10-16T05:13:18.718Z,10.75
2018-10-16T05:14:17.495Z,10.81
2018-10-16T05:15:17.733Z,10.88
2018-10-16T05:16:18.064Z,10.88
2018-10-16T05:17:17.602Z,10.88
2018-10-16T05:18:17.463Z,10.88
2018-10-16T05:19:19.390Z,10.88
2018-10-16T05:20:17.538Z,10.81
2018-10-16T05:21:17.418Z,10.81
2018-10-16T05:22:17.535Z,10.69
2018-10-16T05:23:17.809Z,10.56
2018-10-16T05:24:17.454Z,10.56
2018-10-16T05:25:17.475Z,10.31
2018-10-16T05:26:17.507Z,10.25
2018-10-16T05:27:17.638Z,10.13
2018-10-16T05:28:17.747Z,10.13
2018-10-16T05:29:17.490Z,10
2018-10-16T05:30:17.408Z,9.94
2018-10-16T05:31:19.218Z,9.94
2018-10-16T05:32:17.703Z,9.94
2018-10-16T05:33:41.808Z,10.13
2018-10-16T05:34:41.840Z,10.06
2018-10-16T05:35:41.898Z,10.13
2018-10-16T05:36:41.735Z,10.13
2018-10-16T05:37:41.779Z,10.06
2018-10-16T05:38:41.752Z,10.13
2018-10-16T05:39:42.152Z,10.19
2018-10-16T05:40:41.731Z,10.19
2018-10-16T05:41:41.775Z,10.25
2018-10-16T05:42:41.806Z,10.31
2018-10-16T05:43:41.765Z,10.38
2018-10-16T05:44:42.112Z,10.38
2018-10-16T05:45:41.761Z,10.44
2018-10-16T05:46:41.945Z,10.44
2018-10-16T05:47:41.908Z,10.5
2018-10-16T05:48:41.885Z,10.5
2018-10-16T05:49:41.790Z,10.5
2018-10-16T05:50:41.927Z,10.56
2018-10-16T05:51:42.174Z,10.56
2018-10-16T05:52:41.910Z,10.56
2018-10-16T05:53:41.759Z,10.56
2018-10-16T05:54:41.788Z,10.56
2018-10-16T05:55:41.946Z,10.56
2018-10-16T05:56:41.861Z,10.56
2018-10-16T05:57:41.950Z,10.56
2018-10-16T05:58:41.845Z,10.56
2018-10-16T05:59:41.940Z,10.56
2018-10-16T06:00:41.750Z,10.56
2018-10-16T06:01:41.800Z,10.56
2018-10-16T06:02:42.286Z,10.56
2018-10-16T06:03:41.762Z,10.63
2018-10-16T06:04:41.743Z,10.63
2018-10-16T06:05:42.486Z,10.63
2018-10-16T06:06:41.778Z,10.63
2018-10-16T06:07:41.773Z,10.63
2018-10-16T06:08:41.861Z,10.69
2018-10-16T06:09:41.730Z,10.69
2018-10-16T06:10:42.064Z,10.69
2018-10-16T06:11:41.920Z,10.69
2018-10-16T06:12:41.768Z,10.69
2018-10-16T06:13:41.814Z,10.69
2018-10-16T06:14:41.949Z,10.69
2018-10-16T06:15:41.697Z,10.69
2018-10-16T06:16:41.744Z,10.69
2018-10-16T06:17:41.683Z,10.69
2018-10-16T06:18:42.146Z,10.69
2018-10-16T06:19:41.830Z,10.63
2018-10-16T06:20:41.761Z,10.63
2018-10-16T06:21:41.873Z,10.63
2018-10-16T06:22:41.778Z,10.63
2018-10-16T06:23:41.722Z,10.63
2018-10-16T06:24:41.702Z,10.63
2018-10-16T06:25:41.739Z,10.75
2018-10-16T06:26:42.056Z,10.69
2018-10-16T06:27:42.436Z,10.75
2018-10-16T06:28:41.805Z,10.81
2018-10-16T06:29:41.845Z,10.81
2018-10-16T06:30:42.077Z,10.88
2018-10-16T06:31:41.723Z,10.88
2018-10-16T06:32:41.810Z,10.88
2018-10-16T06:33:41.912Z,10.88
2018-10-16T06:34:41.889Z,10.88
2018-10-16T06:35:41.793Z,10.88
2018-10-16T06:36:41.839Z,10.94
2018-10-16T06:37:42.051Z,10.94
2018-10-16T06:38:41.740Z,10.94
2018-10-16T06:39:41.731Z,10.88
2018-10-16T06:40:42.871Z,10.94
2018-10-16T06:41:42.471Z,10.94
2018-10-16T06:42:41.947Z,11
2018-10-16T06:43:42.174Z,11
2018-10-16T06:44:42.108Z,11
2018-10-16T06:45:41.728Z,11
2018-10-16T06:46:43.165Z,11
2018-10-16T06:47:43.127Z,11
2018-10-16T06:48:46.084Z,11
2018-10-16T06:49:41.676Z,11.06
2018-10-16T06:50:41.646Z,11.12
2018-10-16T06:51:41.632Z,11.12
2018-10-16T06:52:41.682Z,11.12
2018-10-16T06:53:41.708Z,11.19
2018-10-16T06:54:42.235Z,11.19
2018-10-16T06:55:41.628Z,11.19
2018-10-16T06:56:41.726Z,11.25
2018-10-16T06:57:41.687Z,11.25
2018-10-16T06:58:41.677Z,11.25
2018-10-16T06:59:41.694Z,11.25
2018-10-16T07:00:41.700Z,11.25
2018-10-16T07:01:41.665Z,11.31
2018-10-16T07:02:41.647Z,11.31
2018-10-16T07:03:41.641Z,11.38
2018-10-16T07:04:41.650Z,11.44
2018-10-16T07:05:41.683Z,11.44
2018-10-16T07:06:42.091Z,11.44
2018-10-16T07:07:41.679Z,11.5
2018-10-16T07:08:41.935Z,11.5
2018-10-16T07:09:41.925Z,11.56
2018-10-16T07:10:41.659Z,11.63
2018-10-16T07:11:41.733Z,11.63
2018-10-16T07:12:41.613Z,11.63
2018-10-16T07:13:41.620Z,11.63
2018-10-16T07:14:41.786Z,11.69
2018-10-16T07:15:41.753Z,11.69
2018-10-16T07:17:41.619Z,11.75
2018-10-16T07:18:41.678Z,11.81
2018-10-16T07:19:41.683Z,11.81
2018-10-16T07:20:41.791Z,11.81
2018-10-16T07:21:42.543Z,11.88
2018-10-16T07:22:41.691Z,11.88
2018-10-16T07:23:42.207Z,11.88
2018-10-16T07:24:41.676Z,11.94
2018-10-16T07:25:41.705Z,11.94
2018-10-16T07:26:41.671Z,12
2018-10-16T07:27:41.817Z,12
2018-10-16T07:28:41.670Z,12
2018-10-16T07:29:41.600Z,12
2018-10-16T07:30:41.778Z,12.06
2018-10-16T07:31:41.650Z,12.06
2018-10-16T07:32:41.895Z,12.13
2018-10-16T07:33:41.728Z,12.13
2018-10-16T07:34:41.681Z,12.19
2018-10-16T07:35:42.051Z,12.19
2018-10-16T07:36:41.988Z,12.25
2018-10-16T07:37:42.076Z,12.25
2018-10-16T07:38:42.074Z,12.31
2018-10-16T07:39:41.957Z,12.31
2018-10-16T07:40:41.611Z,12.37
2018-10-16T07:41:41.642Z,12.31
2018-10-16T07:42:41.730Z,12.31
2018-10-16T07:43:41.582Z,12.37
2018-10-16T07:44:41.743Z,12.37
2018-10-16T07:45:41.597Z,12.37
2018-10-16T07:46:41.560Z,12.37
2018-10-16T07:47:41.658Z,12.44
2018-10-16T07:48:43.392Z,12.44
2018-10-16T07:49:41.588Z,12.5
2018-10-16T07:50:41.643Z,12.5
2018-10-16T07:51:41.582Z,12.5
2018-10-16T07:52:41.590Z,12.56
2018-10-16T07:53:41.672Z,12.56
2018-10-16T07:54:41.658Z,12.63
2018-10-16T07:55:41.844Z,12.56
2018-10-16T07:56:41.648Z,12.63
2018-10-16T07:57:41.810Z,12.63
2018-10-16T07:58:41.643Z,12.63
2018-10-16T07:59:41.762Z,12.63
2018-10-16T08:00:41.760Z,12.63
2018-10-16T08:01:41.969Z,12.69
2018-10-16T08:02:41.700Z,12.63
2018-10-16T08:03:41.654Z,12.69
2018-10-16T08:04:41.578Z,12.75
2018-10-16T08:05:41.648Z,12.75
2018-10-16T08:06:41.834Z,12.81
2018-10-16T08:07:41.595Z,12.81
2018-10-16T08:08:41.724Z,12.88
2018-10-16T08:09:41.668Z,12.81
2018-10-16T08:11:41.757Z,12.88
2018-10-16T08:12:42.291Z,12.94
2018-10-16T08:13:41.772Z,12.94
2018-10-16T08:14:41.649Z,13
2018-10-16T08:15:41.676Z,13
2018-10-16T08:16:41.743Z,13
2018-10-16T08:17:41.606Z,13
2018-10-16T08:18:41.787Z,13
2018-10-16T08:19:41.632Z,13.06
2018-10-16T08:20:41.542Z,13.13
2018-10-16T08:21:42.042Z,13.13
2018-10-16T08:22:41.591Z,13.19
2018-10-16T08:23:41.597Z,13.25
2018-10-16T08:24:41.637Z,13.25
2018-10-16T08:25:41.582Z,13.25
2018-10-16T08:26:41.804Z,13.25
2018-10-16T08:27:41.583Z,13.38
2018-10-16T08:29:41.525Z,13.44
2018-10-16T08:30:42.430Z,13.44
2018-10-16T08:31:41.515Z,13.5
2018-10-16T08:32:41.535Z,13.5
2018-10-16T08:33:41.509Z,13.5
2018-10-16T08:34:41.583Z,13.56
2018-10-16T08:35:41.774Z,13.56
2018-10-16T08:36:42.733Z,13.62
2018-10-16T08:37:41.502Z,13.56
2018-10-16T08:38:41.484Z,13.62
2018-10-16T08:39:41.516Z,13.69
2018-10-16T08:40:41.529Z,13.69
2018-10-16T08:41:41.864Z,13.69
2018-10-16T08:42:41.943Z,13.69
2018-10-16T08:43:41.544Z,13.75
2018-10-16T08:44:42.266Z,13.75
2018-10-16T08:45:41.686Z,13.75
2018-10-16T08:46:41.643Z,13.81
2018-10-16T08:47:42.615Z,13.81
2018-10-16T08:48:41.801Z,13.88
2018-10-16T08:49:41.644Z,13.88
2018-10-16T08:50:41.540Z,13.94
2018-10-16T08:51:41.520Z,14
2018-10-16T08:52:41.516Z,14.06
2018-10-16T08:53:41.724Z,14.13
2018-10-16T08:54:41.691Z,14.13
2018-10-16T08:55:41.640Z,14.19
2018-10-16T08:56:41.560Z,14.19
2018-10-16T08:57:41.544Z,14.25
2018-10-16T08:58:41.552Z,14.25
2018-10-16T08:59:41.517Z,14.31
2018-10-16T09:00:41.585Z,14.31
2018-10-16T09:01:41.593Z,14.38
2018-10-16T09:02:41.650Z,14.44
2018-10-16T09:03:41.532Z,14.44
2018-10-16T09:04:41.878Z,14.5
2018-10-16T09:05:41.514Z,14.56
2018-10-16T09:06:42.088Z,14.56
2018-10-16T09:07:41.499Z,14.63
2018-10-16T09:08:41.731Z,14.63
2018-10-16T09:09:41.575Z,14.69
2018-10-16T09:10:41.746Z,14.63
2018-10-16T09:11:41.617Z,14.75
2018-10-16T09:12:41.473Z,14.75
2018-10-16T09:13:41.509Z,14.75
2018-10-16T09:14:41.549Z,14.81
2018-10-16T09:15:41.521Z,14.81
2018-10-16T09:16:41.495Z,14.87
2018-10-16T09:17:41.561Z,14.87
2018-10-16T09:18:41.568Z,14.87
2018-10-16T09:19:41.871Z,14.94
2018-10-16T09:20:41.548Z,14.94
2018-10-16T09:21:41.473Z,15
2018-10-16T09:22:41.446Z,15.06
2018-10-16T09:23:41.497Z,15.06
2018-10-16T09:24:42.471Z,15.19
2018-10-16T09:25:41.935Z,15.19
2018-10-16T09:26:41.503Z,15.31
2018-10-16T09:27:41.648Z,15.31
2018-10-16T09:28:41.422Z,15.38
2018-10-16T09:29:41.452Z,15.5
2018-10-16T09:30:42.197Z,15.56
2018-10-16T09:31:41.463Z,15.5
2018-10-16T09:32:41.469Z,15.5
2018-10-16T09:33:41.780Z,15.56
2018-10-16T09:34:41.425Z,15.56
2018-10-16T09:35:41.436Z,15.63
2018-10-16T09:36:41.495Z,15.69
2018-10-16T09:37:43.196Z,15.69
2018-10-16T09:38:41.736Z,15.75
2018-10-16T09:39:41.497Z,15.75
2018-10-16T09:40:41.531Z,15.88
2018-10-16T09:41:41.498Z,15.94
2018-10-16T09:42:41.636Z,15.94
2018-10-16T09:43:41.616Z,16
2018-10-16T09:44:41.643Z,16.06
2018-10-16T09:45:41.666Z,16.12
2018-10-16T09:46:41.662Z,16.19
2018-10-16T09:47:42.356Z,16.19
2018-10-16T09:48:41.822Z,16.25
2018-10-16T09:49:42.394Z,16.37
2018-10-16T09:50:41.588Z,16.37
2018-10-16T09:51:41.498Z,16.44
2018-10-16T09:52:41.880Z,16.5
2018-10-16T09:53:41.437Z,16.5
2018-10-16T09:54:41.420Z,16.44
2018-10-16T09:55:41.533Z,16.44
2018-10-16T09:56:41.544Z,16.44
2018-10-16T09:57:41.835Z,16.44
2018-10-16T09:58:41.414Z,16.44
2018-10-16T09:59:41.532Z,16.44
2018-10-16T10:00:41.691Z,16.5
2018-10-16T10:01:41.554Z,16.5
2018-10-16T10:02:41.567Z,16.56
2018-10-16T10:03:41.568Z,16.62
2018-10-16T10:04:41.564Z,16.69
2018-10-16T10:05:41.470Z,16.81
2018-10-16T10:06:41.486Z,16.81
2018-10-16T10:07:41.504Z,16.94
2018-10-16T10:08:41.596Z,17
2018-10-16T10:09:41.498Z,17
2018-10-16T10:10:41.397Z,17
2018-10-16T10:11:41.457Z,17.06
2018-10-16T10:12:41.617Z,17.12
2018-10-16T10:13:41.387Z,17.19
2018-10-16T10:14:41.587Z,17.19
2018-10-16T10:15:41.446Z,17.25
2018-10-16T10:16:41.676Z,17.25
2018-10-16T10:17:41.496Z,17.25
2018-10-16T10:18:41.543Z,17.31
2018-10-16T10:19:41.715Z,17.31
2018-10-16T10:20:41.522Z,17.31
2018-10-16T10:21:41.466Z,17.31
2018-10-16T10:22:41.402Z,17.31
2018-10-16T10:23:41.405Z,17.31
2018-10-16T10:24:41.370Z,17.37
2018-10-16T10:25:41.404Z,17.37
2018-10-16T10:26:41.404Z,17.37
2018-10-16T10:27:41.572Z,17.44
2018-10-16T10:28:41.449Z,17.44
2018-10-16T10:29:42.283Z,17.44
2018-10-16T10:30:41.755Z,17.5
2018-10-16T10:31:41.437Z,17.44
2018-10-16T10:32:41.702Z,17.5
2018-10-16T10:33:41.883Z,17.5
2018-10-16T10:34:41.400Z,17.56
2018-10-16T10:35:41.691Z,17.62
2018-10-16T10:36:41.557Z,17.62
2018-10-16T10:37:41.421Z,17.69
2018-10-16T10:38:41.436Z,17.69
2018-10-16T10:39:41.411Z,17.69
2018-10-16T10:40:41.500Z,17.69
2018-10-16T10:41:41.406Z,17.75
2018-10-16T10:42:41.519Z,17.75
2018-10-16T10:43:41.369Z,17.81
2018-10-16T10:44:41.479Z,17.81
2018-10-16T10:45:41.560Z,17.81
2018-10-16T10:46:41.355Z,17.87
2018-10-16T10:47:41.811Z,17.87
2018-10-16T10:48:41.396Z,17.87
2018-10-16T10:49:41.480Z,17.87
2018-10-16T10:50:44.595Z,17.87
2018-10-16T10:51:43.138Z,17.94
2018-10-16T10:52:41.494Z,18.06
2018-10-16T10:53:41.348Z,18.06
2018-10-16T10:54:41.363Z,18.06
2018-10-16T10:55:41.392Z,18.12
2018-10-16T10:56:42.278Z,18.12
2018-10-16T10:57:41.579Z,18.19
2018-10-16T10:58:41.543Z,18.12
2018-10-16T10:59:41.405Z,18.19
2018-10-16T11:00:41.408Z,18.25
2018-10-16T11:01:41.542Z,18.31
2018-10-16T11:02:41.369Z,18.31
2018-10-16T11:03:43.256Z,18.31
2018-10-16T11:04:41.481Z,18.37
2018-10-16T11:05:41.494Z,18.31
2018-10-16T11:06:41.337Z,18.31
2018-10-16T11:07:41.866Z,18.44
2018-10-16T11:08:41.545Z,18.44
2018-10-16T11:09:41.361Z,18.5
2018-10-16T11:10:41.460Z,18.44
2018-10-16T11:11:40.956Z,18.5
2018-10-16T11:12:41.520Z,18.5
2018-10-16T11:13:41.299Z,18.5
2018-10-16T11:14:41.687Z,18.5
2018-10-16T11:15:41.601Z,18.5
2018-10-16T11:16:41.319Z,18.5
2018-10-16T11:17:41.421Z,18.56
2018-10-16T11:18:41.415Z,18.62
2018-10-16T11:19:41.408Z,18.69
2018-10-16T11:20:41.483Z,18.75
2018-10-16T11:21:41.352Z,18.75
2018-10-16T11:22:41.479Z,18.81
2018-10-16T11:23:41.384Z,18.81
2018-10-16T11:24:41.524Z,18.94
2018-10-16T11:25:41.372Z,18.94
2018-10-16T11:26:41.462Z,19
2018-10-16T11:27:41.571Z,19.12
2018-10-16T11:28:41.368Z,19.12
2018-10-16T11:29:41.536Z,19.19
2018-10-16T11:30:41.619Z,19.19
2018-10-16T11:31:41.373Z,19.19
2018-10-16T11:32:41.341Z,19.31
2018-10-16T11:33:41.335Z,19.25
2018-10-16T11:34:41.419Z,19.37
2018-10-16T11:35:41.392Z,19.37
2018-10-16T11:36:41.699Z,19.37
2018-10-16T11:37:41.815Z,19.44
2018-10-16T11:38:41.336Z,19.5
2018-10-16T11:39:41.289Z,19.5
2018-10-16T11:40:41.288Z,19.56
2018-10-16T11:41:41.360Z,19.56
2018-10-16T11:42:41.670Z,19.69
2018-10-16T11:43:41.283Z,19.69
2018-10-16T11:44:41.607Z,19.75
2018-10-16T11:45:42.094Z,19.75
2018-10-16T11:46:41.517Z,19.81
2018-10-16T11:47:41.391Z,19.81
2018-10-16T11:48:41.406Z,19.81
2018-10-16T11:49:41.272Z,19.81
2018-10-16T11:50:41.623Z,19.81
2018-10-16T11:51:41.349Z,19.81
2018-10-16T11:52:41.637Z,19.87
2018-10-16T11:53:41.323Z,19.87
2018-10-16T11:54:41.768Z,19.94
2018-10-16T11:55:41.313Z,19.94
2018-10-16T11:56:41.382Z,19.94
2018-10-16T11:57:41.543Z,20
2018-10-16T11:58:41.319Z,20
2018-10-16T11:59:41.304Z,20
2018-10-16T12:00:41.466Z,20.06
2018-10-16T12:01:41.264Z,20.06
2018-10-16T12:02:41.795Z,20.12
2018-10-16T12:03:41.305Z,20.12
2018-10-16T12:04:41.421Z,20.12
2018-10-16T12:05:41.347Z,20.19
2018-10-16T12:06:41.341Z,20.19
2018-10-16T12:07:41.331Z,20.19
2018-10-16T12:08:41.669Z,20.25
2018-10-16T12:09:41.546Z,20.25
2018-10-16T12:10:41.838Z,20.25
2018-10-16T12:11:41.326Z,20.25
2018-10-16T12:12:41.304Z,20.31
2018-10-16T12:13:41.324Z,20.31
2018-10-16T12:14:41.510Z,20.37
2018-10-16T12:15:41.294Z,20.44
2018-10-16T12:16:42.149Z,20.44
2018-10-16T12:17:41.460Z,20.44
2018-10-16T12:18:41.296Z,20.5
2018-10-16T12:19:42.540Z,20.56
2018-10-16T12:20:41.393Z,20.56
2018-10-16T12:21:41.264Z,20.56
2018-10-16T12:22:41.405Z,20.62
2018-10-16T12:23:42.746Z,20.62
2018-10-16T12:24:41.420Z,20.62
2018-10-16T12:25:41.291Z,20.69
2018-10-16T12:26:41.303Z,20.69
2018-10-16T12:27:41.500Z,20.81
2018-10-16T12:28:41.238Z,20.81
2018-10-16T12:29:41.343Z,20.81
2018-10-16T12:30:41.474Z,20.81
2018-10-16T12:31:41.242Z,21
2018-10-16T12:32:41.432Z,21.12
2018-10-16T12:33:41.352Z,21.06
2018-10-16T12:34:41.366Z,21.06
2018-10-16T12:35:41.464Z,21
2018-10-16T12:36:41.265Z,21.06
2018-10-16T12:37:41.375Z,21
2018-10-16T12:38:41.404Z,21.06
2018-10-16T12:39:42.003Z,21.06
2018-10-16T12:40:41.436Z,21.12
2018-10-16T12:41:41.386Z,21.12
2018-10-16T12:42:41.735Z,21.12
2018-10-16T12:43:43.788Z,21.19
2018-10-16T12:44:41.292Z,21.19
2018-10-16T12:45:42.509Z,21.19
2018-10-16T12:46:41.242Z,21.31
2018-10-16T12:47:41.245Z,21.25
2018-10-16T12:48:41.361Z,21.25
2018-10-16T12:49:41.344Z,21.25
2018-10-16T12:50:41.440Z,21.25
2018-10-16T12:51:41.223Z,21.25
2018-10-16T12:52:41.364Z,21.31
2018-10-16T12:53:41.281Z,21.25
2018-10-16T12:54:41.237Z,21.31
2018-10-16T12:55:41.417Z,21.31
2018-10-16T12:56:41.803Z,21.31
2018-10-16T12:57:41.219Z,21.31
2018-10-16T12:58:41.233Z,21.31
2018-10-16T12:59:41.206Z,21.31
2018-10-16T13:00:41.381Z,21.31
2018-10-16T13:01:41.306Z,21.31
2018-10-16T13:02:41.261Z,21.31
2018-10-16T13:03:42.199Z,21.31
2018-10-16T13:04:41.494Z,21.37
2018-10-16T13:05:41.343Z,21.31